createdAt,value
2018-07-19T00:00:12.538Z,11.27
2018-07-19T00:02:40.092Z,10.87
2018-07-19T00:05:07.501Z,11.60
2018-07-19T00:07:35.103Z,11.83
2018-07-19T00:10:02.476Z,10.03
2018-07-19T00:12:29.906Z,11.33
2018-07-19T00:14:57.438Z,9.67
2018-07-19T00:17:24.741Z,10.67
2018-07-19T00:19:52.270Z,9.97
2018-07-19T00:22:19.731Z,11.03
2018-07-19T00:24:47.260Z,12.07
2018-07-19T00:27:14.720Z,11.70
2018-07-19T00:29:42.314Z,13.57
2018-07-19T00:32:09.757Z,13.83
2018-07-19T00:34:37.185Z,13.80
2018-07-19T00:37:04.711Z,15.07
2018-07-19T00:39:32.286Z,14.67
2018-07-19T00:41:59.553Z,17.20
2018-07-19T00:44:26.841Z,16.47
2018-07-19T00:46:54.483Z,16.77
2018-07-19T00:49:21.787Z,15.50
2018-07-19T00:51:49.225Z,17.00
2018-07-19T00:54:16.878Z,16.87
2018-07-19T00:56:44.335Z,15.50
2018-07-19T00:59:11.579Z,16.53
2018-07-19T01:01:38.820Z,15.57
2018-07-19T01:04:06.089Z,15.83
2018-07-19T01:06:33.825Z,16.87
2018-07-19T01:09:01.098Z,16.70
2018-07-19T01:11:29.315Z,15.70
2018-07-19T01:13:56.664Z,18.83
2018-07-19T01:16:24.085Z,17.03
2018-07-19T01:18:51.457Z,18.37
2018-07-19T01:21:18.849Z,17.97
2018-07-19T01:23:46.130Z,17.70
2018-07-19T01:26:13.679Z,19.73
2018-07-19T01:28:40.967Z,19.30
2018-07-19T01:31:08.347Z,20.63
2018-07-19T01:33:35.673Z,20.07
2018-07-19T01:36:02.930Z,20.83
2018-07-19T01:38:30.360Z,21.63
2018-07-19T01:40:58.723Z,23.50
2018-07-19T01:43:26.554Z,21.03
2018-07-19T01:45:54.161Z,24.30
2018-07-19T01:48:21.629Z,23.87
2018-07-19T01:50:48.897Z,22.90
2018-07-19T01:53:16.421Z,25.10
2018-07-19T01:55:43.912Z,23.87
2018-07-19T01:58:11.202Z,22.57
2018-07-19T02:00:38.583Z,22.33
2018-07-19T02:03:05.947Z,22.50
2018-07-19T02:05:33.611Z,24.67
2018-07-19T02:08:01.040Z,26.00
2018-07-19T02:10:28.568Z,24.37
2018-07-19T02:12:56.223Z,27.10
2018-07-19T02:15:23.514Z,26.33
2018-07-19T02:17:50.956Z,27.10
2018-07-19T02:20:18.207Z,27.53
2018-07-19T02:22:46.731Z,27.70
2018-07-19T02:25:14.249Z,29.73
2018-07-19T02:27:41.504Z,28.83
2018-07-19T02:30:08.750Z,28.33
2018-07-19T02:32:36.003Z,26.43
2018-07-19T02:35:03.683Z,29.07
2018-07-19T02:37:31.092Z,28.70
2018-07-19T02:39:58.838Z,28.17
2018-07-19T02:42:26.094Z,29.90
2018-07-19T02:44:53.398Z,29.97
2018-07-19T02:47:20.668Z,30.53
2018-07-19T02:49:47.975Z,30.90
2018-07-19T02:52:15.232Z,30.07
2018-07-19T02:54:43.284Z,28.90
2018-07-19T02:57:10.532Z,32.60
2018-07-19T02:59:38.101Z,30.73
2018-07-19T03:02:07.533Z,31.33
2018-07-19T03:04:34.849Z,31.27
2018-07-19T03:07:02.221Z,31.43
2018-07-19T03:09:29.673Z,33.47
2018-07-19T03:11:57.107Z,31.90
2018-07-19T03:14:24.877Z,31.60
2018-07-19T03:16:52.572Z,31.77
2018-07-19T03:19:21.212Z,30.90
2018-07-19T03:21:49.227Z,31.70
2018-07-19T03:24:16.954Z,32.23
2018-07-19T03:26:44.232Z,34.17
2018-07-19T03:29:12.112Z,37.53
2018-07-19T03:31:39.362Z,36.17
2018-07-19T03:34:06.708Z,36.27
2018-07-19T03:36:34.049Z,35.60
2018-07-19T03:39:01.488Z,34.70
2018-07-19T03:41:29.259Z,36.97
2018-07-19T03:43:56.629Z,35.70
2018-07-19T03:46:24.218Z,36.67
2018-07-19T03:48:51.642Z,36.37
2018-07-19T03:51:18.945Z,36.23
2018-07-19T03:53:46.718Z,36.80
2018-07-19T03:56:15.028Z,36.50
2018-07-19T03:58:42.407Z,36.33
2018-07-19T04:01:09.987Z,35.70
2018-07-19T04:03:37.372Z,35.73
2018-07-19T04:06:11.660Z,36.10
2018-07-19T04:08:38.965Z,34.97
2018-07-19T04:11:06.416Z,35.30
2018-07-19T04:13:33.685Z,33.77
2018-07-19T04:16:01.213Z,30.13
2018-07-19T04:18:28.702Z,30.73
2018-07-19T04:20:55.966Z,23.93
2018-07-19T04:23:23.316Z,28.77
2018-07-19T04:25:50.670Z,30.03
2018-07-19T04:28:18.507Z,30.60
2018-07-19T04:30:46.258Z,27.40
2018-07-19T04:33:14.181Z,29.10
2018-07-19T04:35:41.453Z,29.90
2018-07-19T04:38:08.792Z,33.80
2018-07-19T04:40:36.093Z,32.57
2018-07-19T04:43:03.418Z,31.63
2018-07-19T04:45:30.885Z,30.40
2018-07-19T04:47:58.442Z,27.63
2018-07-19T04:50:25.938Z,33.93
2018-07-19T04:52:53.242Z,33.53
2018-07-19T04:55:20.559Z,32.97
2018-07-19T04:57:47.858Z,26.37
2018-07-19T05:00:15.266Z,32.63
2018-07-19T05:02:42.507Z,31.10
2018-07-19T05:05:09.941Z,31.03
2018-07-19T05:07:37.352Z,32.57
2018-07-19T05:10:04.881Z,31.77
2018-07-19T05:12:32.428Z,32.60
2018-07-19T05:14:59.768Z,29.87
2018-07-19T05:17:27.019Z,25.97
2018-07-19T05:19:54.293Z,26.00
2018-07-19T05:22:21.554Z,23.03
2018-07-19T05:24:48.874Z,24.73
2018-07-19T05:27:16.394Z,19.63
2018-07-19T05:29:44.104Z,27.70
2018-07-19T05:32:11.763Z,24.23
2018-07-19T05:34:39.291Z,25.77
2018-07-19T05:37:07.065Z,27.40
2018-07-19T05:39:34.713Z,27.57
2018-07-19T05:42:02.627Z,23.20
2018-07-19T05:44:30.914Z,28.67
2018-07-19T05:46:58.497Z,27.77
2018-07-19T05:49:26.133Z,25.17
2018-07-19T05:51:53.804Z,22.07
2018-07-19T05:54:21.912Z,19.30
2018-07-19T05:56:49.513Z,19.40
2018-07-19T05:59:17.113Z,19.27
2018-07-19T06:01:44.566Z,17.90
2018-07-19T06:04:11.993Z,16.63
2018-07-19T06:06:39.642Z,15.30
2018-07-19T06:09:08.068Z,13.23
2018-07-19T06:11:35.645Z,12.93
2018-07-19T06:14:04.650Z,12.30
2018-07-19T06:16:31.935Z,12.03
2018-07-19T06:18:59.448Z,11.27
2018-07-19T06:21:26.793Z,10.20
2018-07-19T06:23:54.068Z,10.20
2018-07-19T06:26:21.443Z,9.60
2018-07-19T06:28:48.858Z,10.27
2018-07-19T06:31:16.326Z,9.50
2018-07-19T06:33:43.616Z,9.63
2018-07-19T06:36:10.938Z,9.63
2018-07-19T06:38:38.997Z,9.43
2018-07-19T06:41:06.371Z,8.57
2018-07-19T06:43:33.642Z,8.90
2018-07-19T06:46:01.389Z,7.13
2018-07-19T06:48:28.759Z,7.40
2018-07-19T06:50:56.104Z,8.87
2018-07-19T06:53:23.521Z,8.10
2018-07-19T06:55:50.842Z,7.97
2018-07-19T06:58:18.222Z,7.40
2018-07-19T07:00:45.504Z,7.23
2018-07-19T07:03:13.203Z,6.43
2018-07-19T07:05:40.641Z,7.50
2018-07-19T07:08:07.971Z,6.80
2018-07-19T07:10:35.348Z,6.87
2018-07-19T07:13:03.036Z,6.90
2018-07-19T07:15:30.568Z,6.97
2018-07-19T07:17:58.057Z,7.37
2018-07-19T07:20:25.583Z,6.97
2018-07-19T07:22:53.010Z,7.77
2018-07-19T07:25:20.325Z,7.33
2018-07-19T07:27:47.749Z,6.37
2018-07-19T07:30:15.119Z,5.43
2018-07-19T07:32:42.758Z,6.80
2018-07-19T07:35:10.432Z,6.00
2018-07-19T07:37:37.791Z,6.57
2018-07-19T07:40:05.340Z,5.90
2018-07-19T07:42:32.631Z,5.03
2018-07-19T07:44:59.980Z,5.60
2018-07-19T07:47:27.329Z,4.47
2018-07-19T07:49:54.621Z,4.50
2018-07-19T07:52:22.124Z,3.73
2018-07-19T07:54:49.411Z,4.17
2018-07-19T07:57:16.702Z,3.87
2018-07-19T07:59:44.703Z,3.80
2018-07-19T08:02:12.185Z,4.13
2018-07-19T08:04:40.248Z,4.30
2018-07-19T08:07:07.699Z,4.23
2018-07-19T08:09:35.070Z,3.90
2018-07-19T08:12:02.311Z,3.67
2018-07-19T08:14:29.658Z,3.70
2018-07-19T08:16:56.994Z,3.53
2018-07-19T08:19:24.269Z,4.20
2018-07-19T08:21:51.765Z,4.33
2018-07-19T08:24:19.236Z,3.58
2018-07-19T08:26:46.631Z,3.47
2018-07-19T08:29:13.932Z,3.42
2018-07-19T08:31:41.579Z,3.20
2018-07-19T08:34:09.081Z,3.40
2018-07-19T08:36:36.409Z,3.72
2018-07-19T08:39:06.927Z,3.40
2018-07-19T08:41:34.505Z,3.40
2018-07-19T08:44:02.005Z,3.80
2018-07-19T08:46:29.286Z,3.27
2018-07-19T08:48:57.618Z,3.50
2018-07-19T08:51:24.999Z,3.43
2018-07-19T08:53:52.366Z,3.40
2018-07-19T08:56:19.870Z,3.30
2018-07-19T08:58:47.231Z,2.97
2018-07-19T09:01:14.474Z,3.37
2018-07-19T09:03:42.476Z,3.10
2018-07-19T09:06:09.930Z,3.03
2018-07-19T09:08:37.377Z,3.10
2018-07-19T09:11:04.762Z,2.90
2018-07-19T09:13:32.882Z,3.23
2018-07-19T09:16:00.219Z,3.00
2018-07-19T09:18:27.640Z,2.90
2018-07-19T09:20:54.949Z,2.60
2018-07-19T09:23:22.373Z,2.60
2018-07-19T09:25:49.678Z,2.70
2018-07-19T09:28:17.031Z,3.20
2018-07-19T09:30:44.416Z,2.90
2018-07-19T09:33:11.797Z,2.60
2018-07-19T09:35:39.694Z,3.03
2018-07-19T09:38:07.223Z,3.30
2018-07-19T09:40:34.682Z,2.70
2018-07-19T09:43:02.923Z,2.63
2018-07-19T09:45:30.434Z,2.70
2018-07-19T09:47:57.940Z,2.70
2018-07-19T09:50:25.419Z,2.60
2018-07-19T09:52:52.876Z,2.60
2018-07-19T09:55:20.403Z,2.47
2018-07-19T09:57:47.889Z,2.60
2018-07-19T10:00:20.534Z,2.80
2018-07-19T10:02:48.225Z,2.60
2018-07-19T10:05:15.856Z,2.30
2018-07-19T10:07:43.586Z,2.30
2018-07-19T10:10:11.119Z,2.30
2018-07-19T10:12:38.740Z,2.30
2018-07-19T10:15:06.408Z,2.20
2018-07-19T10:17:33.917Z,2.30
2018-07-19T10:20:01.426Z,2.40
2018-07-19T10:22:29.552Z,2.30
2018-07-19T10:24:57.034Z,2.40
2018-07-19T10:27:24.575Z,2.30
2018-07-19T10:29:52.095Z,2.30
2018-07-19T10:32:19.845Z,2.77
2018-07-19T10:34:47.259Z,2.60
2018-07-19T10:37:14.881Z,2.67
2018-07-19T10:39:42.528Z,2.40
2018-07-19T10:42:11.218Z,2.50
2018-07-19T10:44:38.744Z,2.30
2018-07-19T10:47:06.276Z,2.60
2018-07-19T10:49:33.861Z,2.57
2018-07-19T10:52:01.303Z,2.50
2018-07-19T10:54:28.759Z,2.37
2018-07-19T10:56:56.422Z,2.40
2018-07-19T10:59:23.974Z,2.50
2018-07-19T11:01:51.510Z,2.40
2018-07-19T11:04:19.200Z,2.90
2018-07-19T11:06:46.842Z,2.70
2018-07-19T11:09:14.465Z,2.37
2018-07-19T11:11:42.153Z,2.30
2018-07-19T11:14:09.730Z,2.60
2018-07-19T11:16:38.370Z,2.30
2018-07-19T11:19:05.988Z,2.57
2018-07-19T11:21:33.607Z,2.57
2018-07-19T11:24:01.201Z,2.43
2018-07-19T11:26:28.602Z,2.40
2018-07-19T11:28:56.064Z,2.10
2018-07-19T11:31:23.554Z,2.50
2018-07-19T11:33:50.977Z,2.40
2018-07-19T11:36:18.621Z,1.93
2018-07-19T11:38:46.097Z,2.20
2018-07-19T11:41:13.708Z,2.50
2018-07-19T11:43:41.166Z,2.00
2018-07-19T11:46:08.604Z,2.20
2018-07-19T11:48:36.264Z,2.20
2018-07-19T11:51:03.824Z,1.97
2018-07-19T11:53:31.295Z,2.30
2018-07-19T11:55:58.795Z,2.00
2018-07-19T11:58:26.180Z,1.90
2018-07-19T12:00:53.765Z,1.90
2018-07-19T12:03:21.142Z,1.70
2018-07-19T12:05:48.531Z,1.90
2018-07-19T12:08:15.910Z,1.90
2018-07-19T12:10:43.271Z,1.63
2018-07-19T12:13:10.719Z,1.67
2018-07-19T12:15:38.082Z,1.90
2018-07-19T12:18:05.445Z,1.67
2018-07-19T12:20:33.053Z,2.00
2018-07-19T12:23:00.638Z,1.80
2018-07-19T12:25:31.970Z,1.90
2018-07-19T12:27:59.310Z,1.70
2018-07-19T12:30:31.537Z,1.50
2018-07-19T12:32:58.866Z,1.90
2018-07-19T12:35:26.234Z,1.40
2018-07-19T12:37:53.763Z,1.83
2018-07-19T12:40:21.395Z,1.53
2018-07-19T12:42:48.829Z,1.63
2018-07-19T12:45:16.178Z,1.80
2018-07-19T12:47:43.636Z,1.40
2018-07-19T12:50:11.232Z,1.40
2018-07-19T12:52:38.624Z,1.50
2018-07-19T12:55:06.048Z,1.57
2018-07-19T12:57:33.439Z,1.30
2018-07-19T13:00:00.828Z,1.40
2018-07-19T13:02:30.246Z,1.60
2018-07-19T13:04:57.570Z,1.27
2018-07-19T13:07:24.906Z,1.40
2018-07-19T13:09:52.387Z,1.80
2018-07-19T13:12:20.213Z,1.30
2018-07-19T13:14:49.757Z,1.40
2018-07-19T13:17:17.363Z,1.70
2018-07-19T13:19:45.268Z,1.30
2018-07-19T13:22:12.706Z,1.30
2018-07-19T13:24:40.128Z,1.10
2018-07-19T13:27:07.647Z,1.47
2018-07-19T13:29:35.074Z,1.40
2018-07-19T13:32:02.741Z,1.80
2018-07-19T13:34:30.869Z,1.73
2018-07-19T13:36:58.898Z,1.50
2018-07-19T13:39:26.616Z,1.50
2018-07-19T13:41:54.085Z,1.60
2018-07-19T13:44:21.875Z,1.80
2018-07-19T13:46:49.447Z,1.37
2018-07-19T13:49:17.369Z,1.90
2018-07-19T13:51:44.791Z,1.27
2018-07-19T13:54:20.876Z,1.40
2018-07-19T13:56:48.484Z,1.70
2018-07-19T13:59:16.712Z,1.63
2018-07-19T14:01:44.276Z,1.80
2018-07-19T14:04:12.154Z,1.93
2018-07-19T14:06:40.018Z,1.80
2018-07-19T14:09:11.205Z,1.80
2018-07-19T14:11:38.770Z,1.70
2018-07-19T14:14:07.031Z,1.93
2018-07-19T14:16:35.409Z,2.00
2018-07-19T14:19:02.999Z,2.33
2018-07-19T14:21:30.631Z,1.90
2018-07-19T14:23:58.359Z,1.90
2018-07-19T14:26:26.012Z,1.80
2018-07-19T14:28:53.879Z,2.00
2018-07-19T14:31:21.502Z,1.80
2018-07-19T14:33:49.104Z,2.20
2018-07-19T14:36:16.795Z,1.80
2018-07-19T14:38:44.465Z,2.13
2018-07-19T14:41:12.864Z,1.93
2018-07-19T14:43:40.618Z,2.13
2018-07-19T14:46:08.336Z,1.93
2018-07-19T14:48:36.246Z,2.00
2018-07-19T14:51:04.068Z,2.10
2018-07-19T14:53:31.877Z,2.40
2018-07-19T14:55:59.525Z,1.97
2018-07-19T14:58:27.156Z,2.43
2018-07-19T15:00:55.157Z,2.60
2018-07-19T15:03:22.917Z,2.20
2018-07-19T15:05:50.946Z,2.40
2018-07-19T15:08:18.559Z,2.20
2018-07-19T15:10:46.221Z,2.30
2018-07-19T15:13:13.850Z,2.20
2018-07-19T15:15:41.489Z,2.43
2018-07-19T15:18:09.266Z,2.30
2018-07-19T15:20:36.935Z,2.33
2018-07-19T15:23:04.991Z,2.33
2018-07-19T15:25:32.655Z,7.53
2018-07-19T15:28:00.271Z,8.83
2018-07-19T15:30:27.883Z,2.93
2018-07-19T15:32:55.465Z,2.30
2018-07-19T15:35:23.123Z,2.50
2018-07-19T15:37:50.758Z,2.47
2018-07-19T15:40:18.448Z,2.60
2018-07-19T15:42:46.067Z,2.43
2018-07-19T15:45:13.658Z,2.30
2018-07-19T15:47:41.358Z,2.10
2018-07-19T15:50:08.954Z,2.40
2018-07-19T15:52:37.288Z,2.23
2018-07-19T15:55:05.144Z,2.30
2018-07-19T15:57:33.737Z,2.33
2018-07-19T16:00:01.489Z,2.10
2018-07-19T16:02:29.195Z,2.90
2018-07-19T16:04:56.924Z,2.70
2018-07-19T16:07:24.614Z,2.70
2018-07-19T16:09:52.277Z,2.50
2018-07-19T16:12:19.797Z,2.37
2018-07-19T16:14:47.340Z,2.60
2018-07-19T16:17:14.931Z,2.90
2018-07-19T16:19:43.062Z,2.40
2018-07-19T16:22:10.505Z,2.23
2018-07-19T16:24:38.368Z,2.10
2018-07-19T16:27:05.879Z,2.10
2018-07-19T16:29:33.390Z,2.40
2018-07-19T16:32:00.938Z,2.40
2018-07-19T16:34:28.496Z,2.37
2018-07-19T16:36:56.378Z,2.23
2018-07-19T16:39:23.925Z,2.30
2018-07-19T16:41:51.422Z,2.40
2018-07-19T16:44:18.926Z,2.20
2018-07-19T16:46:46.474Z,2.37
2018-07-19T16:49:13.984Z,1.90
2018-07-19T16:51:41.609Z,2.47
2018-07-19T16:54:09.194Z,2.20
2018-07-19T16:56:36.878Z,2.13
2018-07-19T16:59:04.542Z,1.83
2018-07-19T17:01:32.176Z,2.00
2018-07-19T17:03:59.618Z,2.40
2018-07-19T17:06:26.894Z,2.47
2018-07-19T17:08:54.764Z,2.60
2018-07-19T17:11:22.128Z,2.33
2018-07-19T17:13:49.518Z,2.10
2018-07-19T17:16:16.990Z,2.33
2018-07-19T17:18:44.397Z,2.10
2018-07-19T17:21:11.807Z,2.17
2018-07-19T17:23:39.305Z,2.63
2018-07-19T17:26:06.613Z,2.00
2018-07-19T17:28:34.032Z,2.30
2018-07-19T17:31:01.335Z,2.50
2018-07-19T17:33:28.596Z,2.00
2018-07-19T17:35:55.917Z,2.50
2018-07-19T17:38:23.277Z,2.43
2018-07-19T17:40:50.681Z,2.50
2018-07-19T17:43:18.058Z,2.80
2018-07-19T17:45:45.404Z,2.70
2018-07-19T17:48:12.726Z,2.63
2018-07-19T17:53:14.049Z,2.17
2018-07-19T17:55:41.401Z,2.57
2018-07-19T17:58:08.797Z,2.73
2018-07-19T18:00:36.782Z,2.63
2018-07-19T18:03:04.058Z,2.73
2018-07-19T18:05:31.381Z,2.50
2018-07-19T18:07:58.724Z,2.30
2018-07-19T18:10:26.018Z,3.03
2018-07-19T18:12:53.514Z,3.13
2018-07-19T18:15:20.932Z,2.80
2018-07-19T18:17:48.244Z,2.80
2018-07-19T18:20:15.620Z,3.40
2018-07-19T18:22:42.992Z,3.07
2018-07-19T18:25:10.360Z,2.90
2018-07-19T18:27:37.719Z,3.00
2018-07-19T18:30:06.076Z,2.80
2018-07-19T18:32:33.436Z,2.63
2018-07-19T18:35:00.809Z,2.67
2018-07-19T18:37:28.797Z,3.07
2018-07-19T18:39:56.833Z,3.10
2018-07-19T18:42:24.215Z,3.40
2018-07-19T18:44:51.526Z,3.30
2018-07-19T18:47:18.839Z,3.40
2018-07-19T18:49:46.898Z,3.10
2018-07-19T18:52:15.120Z,3.50
2018-07-19T18:54:42.546Z,3.37
2018-07-19T18:57:09.842Z,2.90
2018-07-19T18:59:37.092Z,3.13
2018-07-19T19:02:04.389Z,3.90
2018-07-19T19:04:31.710Z,3.47
2018-07-19T19:06:59.048Z,3.10
2018-07-19T19:09:26.367Z,3.33
2018-07-19T19:11:53.763Z,3.63
2018-07-19T19:14:21.150Z,3.90
2018-07-19T19:16:48.471Z,3.50
2018-07-19T19:19:15.901Z,3.93
2018-07-19T19:21:43.426Z,3.40
2018-07-19T19:24:11.782Z,3.77
2018-07-19T19:26:39.084Z,4.00
2018-07-19T19:29:06.355Z,3.70
2018-07-19T19:31:33.691Z,3.23
2018-07-19T19:34:00.959Z,3.73
2018-07-19T19:36:28.409Z,4.20
2018-07-19T19:38:55.789Z,3.83
2018-07-19T19:41:23.171Z,4.10
2018-07-19T19:43:50.478Z,4.00
2018-07-19T19:46:17.804Z,4.10
2018-07-19T19:48:45.247Z,4.30
2018-07-19T19:51:13.302Z,4.30
2018-07-19T19:53:40.619Z,4.00
2018-07-19T19:56:08.092Z,4.33
2018-07-19T19:58:35.481Z,4.57
2018-07-19T20:01:02.792Z,4.77
2018-07-19T20:03:30.151Z,4.20
2018-07-19T20:05:57.894Z,4.90
2018-07-19T20:08:25.429Z,4.80
2018-07-19T20:10:52.809Z,4.60
2018-07-19T20:13:20.866Z,4.77
2018-07-19T20:15:48.257Z,4.57
2018-07-19T20:18:15.645Z,5.00
2018-07-19T20:20:43.028Z,4.30
2018-07-19T20:23:10.502Z,5.00
2018-07-19T20:25:37.863Z,5.30
2018-07-19T20:28:05.937Z,5.23
2018-07-19T20:30:33.310Z,4.40
2018-07-19T20:33:00.664Z,4.90
2018-07-19T20:35:28.184Z,5.27
2018-07-19T20:37:55.667Z,4.87
2018-07-19T20:40:23.035Z,5.30
2018-07-19T20:42:50.391Z,5.37
2018-07-19T20:45:17.905Z,5.00
2018-07-19T20:47:45.294Z,5.13
2018-07-19T20:50:12.590Z,5.60
2018-07-19T20:52:39.980Z,5.10
2018-07-19T20:55:07.743Z,5.17
2018-07-19T20:57:35.309Z,5.30
2018-07-19T21:00:02.827Z,5.67
2018-07-19T21:02:30.178Z,5.27
2018-07-19T21:04:57.624Z,5.50
2018-07-19T21:07:25.008Z,6.03
2018-07-19T21:09:52.409Z,5.90
2018-07-19T21:12:19.792Z,5.43
2018-07-19T21:14:47.119Z,5.77
2018-07-19T21:17:14.648Z,6.33
2018-07-19T21:19:42.050Z,6.20
2018-07-19T21:22:09.466Z,5.67
2018-07-19T21:24:36.797Z,6.60
2018-07-19T21:27:05.002Z,6.67
2018-07-19T21:29:33.481Z,6.20
2018-07-19T21:32:01.089Z,6.93
2018-07-19T21:34:28.745Z,6.07
2018-07-19T21:36:56.519Z,6.93
2018-07-19T21:39:24.564Z,6.70
2018-07-19T21:41:52.014Z,6.43
2018-07-19T21:44:21.644Z,6.07
2018-07-19T21:46:48.976Z,5.73
2018-07-19T21:49:17.496Z,6.07
2018-07-19T21:51:44.877Z,6.57
2018-07-19T21:54:13.515Z,5.67
2018-07-19T21:56:40.896Z,6.53
2018-07-19T21:59:08.221Z,6.37
2018-07-19T22:01:40.099Z,6.13
2018-07-19T22:04:07.385Z,6.50
2018-07-19T22:06:34.758Z,6.17
2018-07-19T22:09:03.099Z,6.87
2018-07-19T22:11:30.444Z,6.83
2018-07-19T22:13:57.768Z,6.90
2018-07-19T22:16:25.309Z,6.30
2018-07-19T22:18:53.206Z,7.03
2018-07-19T22:21:20.836Z,6.77
2018-07-19T22:23:48.277Z,6.03
2018-07-19T22:26:16.321Z,6.93
2018-07-19T22:28:43.641Z,6.73
2018-07-19T22:31:11.103Z,7.23
2018-07-19T22:33:38.344Z,6.60
2018-07-19T22:36:05.683Z,6.90
2018-07-19T22:38:33.021Z,6.63
2018-07-19T22:41:00.412Z,6.37
2018-07-19T22:43:27.722Z,6.40
2018-07-19T22:45:54.968Z,5.67
2018-07-19T22:48:22.303Z,6.40
2018-07-19T22:50:50.280Z,7.03
2018-07-19T22:53:17.575Z,7.10
2018-07-19T22:55:45.001Z,6.37
2018-07-19T22:58:12.320Z,6.30
2018-07-19T23:00:39.726Z,6.90
2018-07-19T23:03:07.077Z,7.10
2018-07-19T23:05:34.371Z,7.37
2018-07-19T23:08:01.659Z,7.73
2018-07-19T23:10:28.969Z,7.90
2018-07-19T23:12:56.262Z,7.57
2018-07-19T23:15:23.542Z,7.63
2018-07-19T23:17:51.055Z,7.33
2018-07-19T23:20:18.381Z,7.33
2018-07-19T23:22:56.509Z,7.97
2018-07-19T23:25:23.733Z,7.73
2018-07-19T23:27:51.244Z,8.07
2018-07-19T23:30:18.880Z,8.20
2018-07-19T23:32:46.243Z,7.77
2018-07-19T23:35:13.622Z,7.83
2018-07-19T23:37:42.149Z,8.50
2018-07-19T23:40:20.245Z,8.37
2018-07-19T23:42:53.770Z,8.80
2018-07-19T23:45:26.483Z,8.47
2018-07-19T23:47:54.733Z,9.23
2018-07-19T23:50:21.970Z,7.67
2018-07-19T23:52:49.323Z,8.80
2018-07-19T23:55:16.628Z,8.93
2018-07-19T23:57:43.991Z,8.77
